Time;durP1;ratioP1;P1;durP2;ratioP2;P2;SDS_P1;SDS_P2;PMS_P1;PMS_P2;Temp;Humidity;BMP_temperature;BMP_pressure;BME280_temperature;BME280_humidity;BME280_pressure;Samples;Min_cycle;Max_cycle;Signal;HPM_P1;HPM_P2
2023/09/03 00:01:01;;;;;;;;;;;;;;;27.02;54.28;101974.44;106788;1266;25667;-50
2023/09/03 00:03:28;;;;;;;;;;;;;;;27.03;54.53;101977.59;106667;1271;25315;-50
2023/09/03 00:05:55;;;;;;;;;;;;;;;27.04;55.15;101976.04;106760;1261;25296;-51
2023/09/03 00:08:22;;;;;;;;;;;;;;;27.04;55.56;101977.65;106876;1261;25327;-53
2023/09/03 00:10:50;;;;;;;;;;;;;;;27.04;56.01;101978.58;106720;1261;25333;-53
2023/09/03 00:13:17;;;;;;;;;;;;;;;27.02;56.35;101978.36;106723;1270;23842;-51
2023/09/03 00:15:44;;;;;;;;;;;;;;;27.01;56.50;101981.59;106520;1270;23883;-53
2023/09/03 00:18:12;;;;;;;;;;;;;;;27.02;56.61;101981.55;106754;1267;24225;-53
2023/09/03 00:20:41;;;;;;;;;;;;;;;27.02;55.63;101978.86;106830;1260;25327;-54
2023/09/03 00:23:08;;;;;;;;;;;;;;;27.02;53.84;101977.80;106745;1269;25315;-52
2023/09/03 00:25:36;;;;;;;;;;;;;;;27.03;52.49;101975.46;106906;1268;25289;-50
2023/09/03 00:28:06;;;;;;;;;;;;;;;27.03;52.17;101975.41;106543;1269;24348;-52
2023/09/03 00:30:33;;;;;;;;;;;;;;;27.04;52.25;101975.52;106770;1265;25316;-52
2023/09/03 00:33:00;;;;;;;;;;;;;;;27.05;51.88;101973.70;106843;1270;23881;-52
2023/09/03 00:35:27;;;;;;;;;;;;;;;27.06;51.28;101973.29;106479;1270;387505;-51
2023/09/03 00:37:54;;;;;;;;;;;;;;;27.06;50.32;101974.52;106722;1261;25306;-53
2023/09/03 00:40:21;;;;;;;;;;;;;;;27.05;49.63;101968.48;106560;1268;25455;-49
2023/09/03 00:42:48;;;;;;;;;;;;;;;27.05;49.31;101971.20;106429;1264;23875;-50
2023/09/03 00:45:14;;;;;;;;;;;;;;;27.03;48.83;101965.27;106393;1264;25412;-50
2023/09/03 00:47:41;;;;;;;;;;;;;;;27.01;48.52;101966.17;106379;1273;24176;-50
2023/09/03 00:50:09;;;;;;;;;;;;;;;26.98;48.57;101970.25;106645;1264;25321;-50
2023/09/03 00:52:36;;;;;;;;;;;;;;;26.96;48.59;101971.83;106554;1267;22536;-51
2023/09/03 00:55:04;;;;;;;;;;;;;;;26.95;48.57;101971.58;106591;1274;25472;-51
2023/09/03 00:57:31;;;;;;;;;;;;;;;26.92;48.57;101967.48;106479;1261;25312;-50
2023/09/03 00:59:58;;;;;;;;;;;;;;;26.89;48.00;101968.64;106679;1263;25507;-51
2023/09/03 01:02:25;;;;;;;;;;;;;;;26.85;47.82;101966.59;106290;1264;25417;-50
2023/09/03 01:04:52;;;;;;;;;;;;;;;26.82;47.81;101966.96;106505;1270;24207;-51
2023/09/03 01:07:19;;;;;;;;;;;;;;;26.79;47.68;101967.38;106288;1275;25390;-50
2023/09/03 01:09:46;;;;;;;;;;;;;;;26.77;47.53;101967.89;106379;1280;25330;-50
2023/09/03 01:12:13;;;;;;;;;;;;;;;26.75;47.12;101964.84;106577;1267;25366;-50
2023/09/03 01:14:45;;;;;;;;;;;;;;;26.73;46.64;101966.17;106664;1264;25420;-50
2023/09/03 01:17:22;;;;;;;;;;;;;;;26.73;46.86;101963.70;106489;1272;25615;-50
2023/09/03 01:19:57;;;;;;;;;;;;;;;26.73;46.70;101961.58;106647;1260;25340;-49
2023/09/03 01:22:28;;;;;;;;;;;;;;;26.72;46.72;101964.11;106844;1267;25315;-50
2023/09/03 01:24:55;;;;;;;;;;;;;;;26.72;46.66;101960.38;106784;1261;25306;-50
2023/09/03 01:27:23;;;;;;;;;;;;;;;26.70;46.54;101962.43;106746;1273;25315;-51
2023/09/03 01:29:51;;;;;;;;;;;;;;;26.71;46.60;101954.06;106803;1267;25319;-50
2023/09/03 01:32:18;;;;;;;;;;;;;;;26.69;46.33;101950.77;106709;1271;25338;-50
2023/09/03 01:34:45;;;;;;;;;;;;;;;26.67;46.23;101950.58;106766;1263;23918;-50
2023/09/03 01:37:12;;;;;;;;;;;;;;;26.65;46.21;101945.17;106578;1263;25305;-51
2023/09/03 01:39:39;;;;;;;;;;;;;;;26.63;46.12;101951.36;106751;1270;25325;-51
2023/09/03 01:42:06;;;;;;;;;;;;;;;26.60;46.13;101953.16;106721;1275;25466;-50
2023/09/03 01:44:33;;;;;;;;;;;;;;;26.57;46.24;101955.15;106104;1260;1002954;-50
2023/09/03 01:47:02;;;;;;;;;;;;;;;26.54;46.35;101950.41;106830;1260;25314;-50
2023/09/03 01:49:50;;;;;;;;;;;;;;;26.52;46.55;101949.88;106853;1270;25357;-51
2023/09/03 01:52:20;;;;;;;;;;;;;;;26.51;46.80;101951.00;106706;1261;25337;-50
2023/09/03 01:54:48;;;;;;;;;;;;;;;26.50;46.81;101951.77;106643;1270;25426;-50
2023/09/03 01:57:20;;;;;;;;;;;;;;;26.57;46.84;101953.38;106738;1260;25306;-50
2023/09/03 01:59:56;;;;;;;;;;;;;;;26.59;46.86;101949.72;106764;1270;23989;-50
2023/09/03 02:02:24;;;;;;;;;;;;;;;26.58;47.03;101949.20;106766;1267;25326;-50
2023/09/03 02:04:51;;;;;;;;;;;;;;;26.59;47.03;101950.95;106494;1270;25364;-50
2023/09/03 02:07:18;;;;;;;;;;;;;;;26.58;47.06;101948.70;106677;1267;25334;-54
2023/09/03 02:09:45;;;;;;;;;;;;;;;26.55;47.20;101946.30;106687;1260;25433;-50
2023/09/03 02:12:12;;;;;;;;;;;;;;;26.51;47.48;101941.73;106774;1267;24251;-50
2023/09/03 02:14:39;;;;;;;;;;;;;;;26.48;47.66;101941.80;106737;1258;25321;-54
2023/09/03 02:17:06;;;;;;;;;;;;;;;26.44;47.88;101939.55;106650;1270;25411;-51
2023/09/03 02:19:32;;;;;;;;;;;;;;;26.42;47.97;101937.04;106754;1260;25354;-50
2023/09/03 02:21:59;;;;;;;;;;;;;;;26.40;48.24;101938.92;106773;1270;25433;-50
2023/09/03 02:24:26;;;;;;;;;;;;;;;26.38;48.47;101937.86;106856;1263;25414;-49
2023/09/03 02:26:53;;;;;;;;;;;;;;;26.35;48.70;101932.86;106685;1264;25353;-51
2023/09/03 02:29:20;;;;;;;;;;;;;;;26.33;48.92;101931.83;106742;1257;25380;-52
2023/09/03 02:31:48;;;;;;;;;;;;;;;26.29;49.31;101930.63;106825;1259;22609;-50
2023/09/03 02:34:15;;;;;;;;;;;;;;;26.28;49.43;101928.76;106736;1260;24205;-50
2023/09/03 02:36:43;;;;;;;;;;;;;;;26.28;49.31;101930.70;106688;1270;22512;-51
2023/09/03 02:39:10;;;;;;;;;;;;;;;26.30;49.26;101927.56;106849;1270;23886;-50
2023/09/03 02:41:36;;;;;;;;;;;;;;;26.30;49.42;101929.70;106824;1268;25314;-49
2023/09/03 02:44:04;;;;;;;;;;;;;;;26.31;49.44;101932.66;106775;1260;23887;-50
2023/09/03 02:46:31;;;;;;;;;;;;;;;26.31;49.48;101930.67;106598;1273;22533;-50
2023/09/03 02:48:59;;;;;;;;;;;;;;;26.33;49.44;101930.39;106814;1257;25315;-51
2023/09/03 02:51:26;;;;;;;;;;;;;;;26.34;49.52;101930.64;106903;1261;23342;-51
2023/09/03 02:53:54;;;;;;;;;;;;;;;26.34;49.59;101935.78;106669;1272;25344;-50
2023/09/03 02:56:22;;;;;;;;;;;;;;;26.36;49.51;101935.17;106800;1267;25367;-51
2023/09/03 02:58:49;;;;;;;;;;;;;;;26.37;49.48;101936.64;106721;1267;25367;-51
2023/09/03 03:01:16;;;;;;;;;;;;;;;26.39;49.66;101934.23;106835;1272;25470;-50
2023/09/03 03:03:44;;;;;;;;;;;;;;;26.39;49.60;101933.69;106811;1267;24224;-50
2023/09/03 03:06:11;;;;;;;;;;;;;;;26.39;49.63;101938.30;106813;1260;22544;-50
2023/09/03 03:08:38;;;;;;;;;;;;;;;26.39;49.70;101936.55;106661;1269;25315;-50
2023/09/03 03:11:08;;;;;;;;;;;;;;;26.36;49.96;101939.92;106794;1269;25415;-51
2023/09/03 03:13:35;;;;;;;;;;;;;;;26.28;50.20;101937.33;106799;1256;26487;-50
2023/09/03 03:16:06;;;;;;;;;;;;;;;26.29;50.23;101939.35;106730;1257;25363;-50
2023/09/03 03:18:34;;;;;;;;;;;;;;;26.21;50.58;101937.25;106796;1256;23621;-51
2023/09/03 03:21:06;;;;;;;;;;;;;;;26.12;50.70;101932.91;106657;1264;22520;-50
2023/09/03 03:23:33;;;;;;;;;;;;;;;26.16;50.89;101932.26;106730;1259;25483;-50
2023/09/03 03:26:00;;;;;;;;;;;;;;;26.16;50.92;101933.48;106856;1270;25319;-50
2023/09/03 03:28:29;;;;;;;;;;;;;;;26.16;50.96;101938.83;106740;1260;25461;-50
2023/09/03 03:30:58;;;;;;;;;;;;;;;26.16;50.96;101940.09;106770;1267;25438;-49
2023/09/03 03:33:27;;;;;;;;;;;;;;;26.16;50.81;101940.83;106628;1264;25437;-50
2023/09/03 03:35:54;;;;;;;;;;;;;;;26.15;50.89;101936.58;106685;1269;22686;-50
2023/09/03 03:38:21;;;;;;;;;;;;;;;26.16;50.83;101935.99;106697;1267;25295;-51
2023/09/03 03:40:48;;;;;;;;;;;;;;;26.15;50.96;101932.65;106692;1260;25367;-51
2023/09/03 03:43:15;;;;;;;;;;;;;;;26.16;51.22;101929.43;106524;1257;23336;-52
2023/09/03 03:45:42;;;;;;;;;;;;;;;26.18;51.24;101930.53;106654;1260;25354;-51
2023/09/03 03:48:09;;;;;;;;;;;;;;;26.20;51.41;101932.73;106615;1273;24226;-51
2023/09/03 03:50:36;;;;;;;;;;;;;;;26.22;51.42;101935.23;106771;1269;25361;-53
2023/09/03 03:53:03;;;;;;;;;;;;;;;26.23;51.44;101936.06;106746;1272;25367;-51
2023/09/03 03:55:30;;;;;;;;;;;;;;;26.25;51.39;101934.53;106715;1270;22553;-51
2023/09/03 03:57:57;;;;;;;;;;;;;;;26.27;51.30;101936.15;106572;1264;24326;-51
2023/09/03 04:00:24;;;;;;;;;;;;;;;26.26;51.25;101939.73;106714;1267;24217;-52
2023/09/03 04:02:51;;;;;;;;;;;;;;;26.29;51.26;101938.14;106837;1270;22520;-51
2023/09/03 04:05:18;;;;;;;;;;;;;;;26.31;51.11;101934.09;106319;1276;25357;-51
2023/09/03 04:07:45;;;;;;;;;;;;;;;26.33;50.99;101933.91;106754;1270;24227;-51
2023/09/03 04:10:12;;;;;;;;;;;;;;;26.35;50.87;101937.90;106773;1268;25491;-51
2023/09/03 04:12:39;;;;;;;;;;;;;;;26.36;50.93;101936.55;106714;1269;25361;-50
2023/09/03 04:15:06;;;;;;;;;;;;;;;26.36;50.88;101936.70;106729;1261;22525;-50
2023/09/03 04:17:34;;;;;;;;;;;;;;;26.36;50.98;101933.33;106733;1261;25344;-50
2023/09/03 04:20:01;;;;;;;;;;;;;;;26.36;51.08;101932.85;106764;1260;25458;-51
2023/09/03 04:22:28;;;;;;;;;;;;;;;26.35;51.11;101930.77;106739;1268;25557;-51
2023/09/03 04:24:56;;;;;;;;;;;;;;;26.34;51.08;101930.61;106753;1263;22503;-50
2023/09/03 04:27:24;;;;;;;;;;;;;;;26.34;51.12;101927.65;106925;1260;25305;-54
2023/09/03 04:29:51;;;;;;;;;;;;;;;26.33;51.38;101928.60;106849;1269;25392;-50
2023/09/03 04:32:18;;;;;;;;;;;;;;;26.33;51.41;101927.00;106566;1267;25396;-51
2023/09/03 04:34:45;;;;;;;;;;;;;;;26.11;52.13;101928.48;106360;1265;22521;-51
2023/09/03 04:37:11;;;;;;;;;;;;;;;25.91;52.86;101923.84;106599;1264;24293;-50
2023/09/03 04:39:38;;;;;;;;;;;;;;;25.89;52.90;101923.95;106686;1269;25379;-50
2023/09/03 04:42:06;;;;;;;;;;;;;;;25.91;53.12;101927.53;106636;1269;24176;-51
2023/09/03 04:44:33;;;;;;;;;;;;;;;26.02;53.00;101927.70;106774;1267;25382;-51
2023/09/03 04:46:59;;;;;;;;;;;;;;;26.29;52.42;101928.88;106645;1269;22595;-50
2023/09/03 04:49:26;;;;;;;;;;;;;;;26.37;52.21;101932.01;106620;1262;24197;-51
2023/09/03 04:51:53;;;;;;;;;;;;;;;26.43;52.13;101930.93;106465;1263;25322;-50
2023/09/03 04:54:21;;;;;;;;;;;;;;;26.48;52.03;101931.98;106629;1262;23908;-51
2023/09/03 04:56:48;;;;;;;;;;;;;;;26.53;51.83;101931.64;106662;1265;23981;-51
2023/09/03 04:59:15;;;;;;;;;;;;;;;26.58;51.72;101929.66;106387;1275;22543;-49
2023/09/03 05:01:43;;;;;;;;;;;;;;;26.63;51.71;101931.13;106412;1273;25370;-50
2023/09/03 05:04:10;;;;;;;;;;;;;;;26.67;51.65;101930.96;106544;1272;24176;-51
2023/09/03 05:06:37;;;;;;;;;;;;;;;26.72;52.20;101927.42;106587;1264;25334;-51
2023/09/03 05:09:04;;;;;;;;;;;;;;;26.76;52.25;101930.71;106507;1261;24195;-50
2023/09/03 05:11:31;;;;;;;;;;;;;;;26.81;52.16;101931.23;106737;1262;25275;-50
2023/09/03 05:13:58;;;;;;;;;;;;;;;26.86;51.86;101932.30;106793;1262;25365;-51
2023/09/03 05:16:26;;;;;;;;;;;;;;;26.92;51.76;101933.66;106813;1267;24163;-50
2023/09/03 05:18:54;;;;;;;;;;;;;;;26.98;51.55;101932.55;106651;1270;25466;-51
2023/09/03 05:21:20;;;;;;;;;;;;;;;27.03;51.04;101934.43;106681;1256;25341;-50
2023/09/03 05:23:49;;;;;;;;;;;;;;;27.08;50.60;101927.16;106745;1269;24024;-49
2023/09/03 05:26:16;;;;;;;;;;;;;;;27.12;50.17;101927.06;106803;1256;25333;-50
2023/09/03 05:28:43;;;;;;;;;;;;;;;27.15;50.28;101926.30;106802;1267;25442;-50
2023/09/03 05:31:11;;;;;;;;;;;;;;;27.18;49.93;101922.50;106712;1261;25383;-50
2023/09/03 05:33:39;;;;;;;;;;;;;;;27.19;49.57;101917.77;106901;1259;24036;-54
2023/09/03 05:36:06;;;;;;;;;;;;;;;27.22;49.43;101913.64;106821;1259;25383;-50
2023/09/03 05:38:33;;;;;;;;;;;;;;;27.24;48.93;101913.85;106419;1274;25316;-51
2023/09/03 05:41:00;;;;;;;;;;;;;;;27.26;48.79;101918.85;106833;1256;25316;-52
2023/09/03 05:43:28;;;;;;;;;;;;;;;27.28;48.82;101915.30;106807;1267;25309;-50
2023/09/03 05:45:56;;;;;;;;;;;;;;;27.31;48.40;101918.15;106400;1264;25338;-51
2023/09/03 05:48:24;;;;;;;;;;;;;;;27.33;47.57;101917.97;106510;1267;22622;-51
2023/09/03 05:51:03;;;;;;;;;;;;;;;27.37;46.69;101915.95;106827;1259;22524;-51
2023/09/03 05:53:31;;;;;;;;;;;;;;;27.43;46.42;101916.77;106744;1262;25318;-50
2023/09/03 05:56:11;;;;;;;;;;;;;;;27.56;46.28;101913.33;106904;1259;25353;-52
2023/09/03 05:58:42;;;;;;;;;;;;;;;27.52;45.90;101911.66;106800;1262;25387;-51
2023/09/03 06:01:09;;;;;;;;;;;;;;;27.35;46.09;101906.13;106731;1260;25359;-49
2023/09/03 06:03:37;;;;;;;;;;;;;;;27.39;46.02;101906.73;106894;1256;25465;-49
2023/09/03 06:06:04;;;;;;;;;;;;;;;27.43;46.26;101903.08;106719;1273;22517;-49
2023/09/03 06:08:32;;;;;;;;;;;;;;;27.52;45.95;101900.95;106886;1256;24354;-50
2023/09/03 06:10:59;;;;;;;;;;;;;;;27.76;45.40;101901.96;106763;1270;25344;-55
2023/09/03 06:13:26;;;;;;;;;;;;;;;28.12;44.42;101900.13;106847;1271;22507;-51
2023/09/03 06:15:54;;;;;;;;;;;;;;;28.34;44.13;101900.14;106737;1260;25101;-49
2023/09/03 06:18:21;;;;;;;;;;;;;;;28.57;43.70;101900.33;106752;1266;25466;-49
2023/09/03 06:20:49;;;;;;;;;;;;;;;28.80;43.32;101903.77;106799;1257;25340;-51
2023/09/03 06:23:18;;;;;;;;;;;;;;;29.03;42.78;101897.14;106777;1270;24499;-50
2023/09/03 06:25:46;;;;;;;;;;;;;;;29.23;42.22;101896.26;106716;1260;26604;-50
2023/09/03 06:28:13;;;;;;;;;;;;;;;29.38;41.73;101894.44;106858;1258;24188;-49
2023/09/03 06:30:40;;;;;;;;;;;;;;;29.51;41.25;101898.66;106779;1256;25393;-50
2023/09/03 06:33:07;;;;;;;;;;;;;;;29.63;41.23;101899.98;106712;1273;25340;-50
2023/09/03 06:35:34;;;;;;;;;;;;;;;29.74;40.95;101899.76;106763;1256;24334;-50
2023/09/03 06:38:01;;;;;;;;;;;;;;;29.85;40.71;101903.16;106797;1259;25493;-49
2023/09/03 06:40:29;;;;;;;;;;;;;;;29.91;39.76;101900.86;106810;1259;24182;-50
2023/09/03 06:42:56;;;;;;;;;;;;;;;29.95;39.74;101900.89;106800;1259;25349;-50
2023/09/03 06:45:22;;;;;;;;;;;;;;;29.95;39.52;101901.55;106712;1257;25322;-49
2023/09/03 06:47:49;;;;;;;;;;;;;;;29.95;39.42;101904.27;106725;1259;24170;-49
2023/09/03 06:50:16;;;;;;;;;;;;;;;29.94;39.34;101901.86;106744;1263;23996;-50
2023/09/03 06:52:43;;;;;;;;;;;;;;;29.92;39.28;101895.61;106798;1261;25331;-49
2023/09/03 06:55:10;;;;;;;;;;;;;;;29.92;39.33;101890.08;106802;1259;25318;-51
2023/09/03 06:57:37;;;;;;;;;;;;;;;29.92;38.90;101893.81;106843;1258;25305;-49
2023/09/03 07:00:06;;;;;;;;;;;;;;;29.91;38.38;101889.45;106795;1269;25386;-49
2023/09/03 07:02:34;;;;;;;;;;;;;;;29.89;38.43;101889.23;106734;1259;25593;-50
2023/09/03 07:05:01;;;;;;;;;;;;;;;29.90;38.44;101892.02;106729;1257;25326;-49
2023/09/03 07:07:28;;;;;;;;;;;;;;;29.91;37.89;101895.52;106709;1262;25344;-51
2023/09/03 07:09:55;;;;;;;;;;;;;;;29.96;37.71;101899.54;106670;1278;25466;-50
2023/09/03 07:12:23;;;;;;;;;;;;;;;30.10;37.16;101900.25;106840;1260;25353;-49
2023/09/03 07:14:51;;;;;;;;;;;;;;;30.33;36.48;101900.80;106849;1255;25389;-49
2023/09/03 07:17:18;;;;;;;;;;;;;;;30.63;36.07;101901.05;106665;1257;25343;-50
2023/09/03 07:19:45;;;;;;;;;;;;;;;30.94;35.35;101901.64;106714;1259;25340;-50
2023/09/03 07:22:12;;;;;;;;;;;;;;;31.25;34.54;101896.30;106629;1263;24201;-51
2023/09/03 07:24:39;;;;;;;;;;;;;;;31.55;33.98;101895.15;106647;1259;22499;-51
2023/09/03 07:27:06;;;;;;;;;;;;;;;31.87;33.49;101897.16;106525;1268;23900;-51
2023/09/03 07:29:33;;;;;;;;;;;;;;;32.19;33.36;101897.55;106606;1259;24018;-51
2023/09/03 07:32:00;;;;;;;;;;;;;;;32.46;32.96;101894.98;106742;1267;25344;-51
2023/09/03 07:34:27;;;;;;;;;;;;;;;32.59;32.29;101895.52;106807;1260;25395;-50
2023/09/03 07:36:54;;;;;;;;;;;;;;;32.64;32.14;101900.63;106762;1267;25465;-51
2023/09/03 07:39:21;;;;;;;;;;;;;;;32.62;32.01;101899.73;106730;1260;25356;-49
2023/09/03 07:41:48;;;;;;;;;;;;;;;32.56;31.86;101899.48;106665;1267;25353;-50
2023/09/03 07:44:15;;;;;;;;;;;;;;;32.47;31.81;101904.46;106735;1260;25333;-50
2023/09/03 07:46:42;;;;;;;;;;;;;;;32.37;31.99;101903.55;106586;1266;25414;-50
2023/09/03 07:49:09;;;;;;;;;;;;;;;32.25;31.78;101905.64;106766;1257;25466;-49
2023/09/03 07:51:36;;;;;;;;;;;;;;;32.14;31.92;101905.09;106774;1268;25331;-49
2023/09/03 07:54:03;;;;;;;;;;;;;;;32.03;32.19;101903.19;106787;1269;25344;-50
2023/09/03 07:56:30;;;;;;;;;;;;;;;31.94;32.17;101905.13;106792;1270;22510;-53
2023/09/03 07:58:57;;;;;;;;;;;;;;;31.85;32.11;101905.47;106760;1261;25315;-50
2023/09/03 08:01:24;;;;;;;;;;;;;;;31.75;32.65;101904.92;106862;1259;23848;-49
2023/09/03 08:03:51;;;;;;;;;;;;;;;31.67;32.43;101904.79;106740;1261;22748;-50
2023/09/03 08:06:18;;;;;;;;;;;;;;;31.62;32.30;101903.15;106768;1269;24333;-50
2023/09/03 08:08:53;;;;;;;;;;;;;;;31.57;32.40;101905.58;106802;1259;25344;-50
2023/09/03 08:11:21;;;;;;;;;;;;;;;31.51;32.61;101902.77;106666;1262;25353;-50
2023/09/03 08:13:53;;;;;;;;;;;;;;;31.47;32.89;101902.19;106715;1262;24375;-50
2023/09/03 08:16:20;;;;;;;;;;;;;;;31.45;33.41;101901.29;106700;1267;25332;-51
2023/09/03 08:18:47;;;;;;;;;;;;;;;31.42;33.74;101898.53;106804;1259;25344;-50
2023/09/03 08:21:14;;;;;;;;;;;;;;;31.37;33.85;101899.67;106669;1260;24224;-56
2023/09/03 08:23:41;;;;;;;;;;;;;;;31.32;33.86;101899.77;106618;1270;25428;-49
2023/09/03 08:26:08;;;;;;;;;;;;;;;31.27;33.95;101899.85;106899;1268;25341;-50
2023/09/03 08:28:35;;;;;;;;;;;;;;;31.25;34.68;101901.54;106715;1263;25344;-51
2023/09/03 08:31:02;;;;;;;;;;;;;;;31.25;35.00;101897.90;106426;1267;25445;-50
2023/09/03 08:33:29;;;;;;;;;;;;;;;31.27;34.88;101897.73;106733;1260;25344;-51
2023/09/03 08:35:56;;;;;;;;;;;;;;;31.30;34.90;101899.27;106565;1270;24246;-50
2023/09/03 08:38:23;;;;;;;;;;;;;;;31.31;35.02;101901.81;106777;1263;25315;-50
2023/09/03 08:40:49;;;;;;;;;;;;;;;31.31;34.97;101896.98;106781;1259;25299;-50
2023/09/03 08:43:17;;;;;;;;;;;;;;;31.31;34.89;101901.71;106828;1267;24330;-50
2023/09/03 08:45:56;;;;;;;;;;;;;;;31.30;34.78;101897.48;106836;1267;25316;-49
2023/09/03 08:48:23;;;;;;;;;;;;;;;31.30;35.18;101894.95;106713;1256;25224;-50
2023/09/03 08:50:50;;;;;;;;;;;;;;;31.31;34.95;101900.44;106742;1269;25786;-51
2023/09/03 08:53:17;;;;;;;;;;;;;;;31.33;35.26;101891.63;106762;1267;25309;-50
2023/09/03 08:55:44;;;;;;;;;;;;;;;31.34;35.08;101891.02;106782;1262;25493;-51
2023/09/03 08:58:11;;;;;;;;;;;;;;;31.34;34.75;101886.88;106861;1261;25316;-51
2023/09/03 09:00:38;;;;;;;;;;;;;;;31.35;34.69;101888.26;106876;1269;25331;-50
2023/09/03 09:03:05;;;;;;;;;;;;;;;31.35;34.66;101884.80;106548;1270;23894;-51
2023/09/03 09:05:32;;;;;;;;;;;;;;;31.36;35.11;101887.04;106829;1262;25268;-50
2023/09/03 09:08:01;;;;;;;;;;;;;;;31.37;34.99;101890.18;106713;1272;25344;-50
2023/09/03 09:10:31;;;;;;;;;;;;;;;31.40;34.76;101891.43;106872;1259;25465;-51
2023/09/03 09:13:04;;;;;;;;;;;;;;;31.40;35.07;101891.21;106761;1259;22525;-50
2023/09/03 09:15:31;;;;;;;;;;;;;;;31.39;34.97;101885.73;106781;1259;25344;-50
2023/09/03 09:17:58;;;;;;;;;;;;;;;31.40;34.77;101885.60;106883;1259;25522;-49
2023/09/03 09:20:25;;;;;;;;;;;;;;;31.41;34.77;101887.48;106542;1270;25331;-50
2023/09/03 09:22:52;;;;;;;;;;;;;;;31.42;34.49;101880.98;106913;1268;24329;-50
2023/09/03 09:25:19;;;;;;;;;;;;;;;31.42;34.85;101881.30;106820;1267;25341;-51
2023/09/03 09:27:46;;;;;;;;;;;;;;;31.43;34.98;101879.23;106823;1256;25341;-50
2023/09/03 09:30:14;;;;;;;;;;;;;;;31.45;34.83;101878.75;106779;1259;25465;-49
2023/09/03 09:32:42;;;;;;;;;;;;;;;31.45;34.52;101875.65;106923;1259;25374;-51
2023/09/03 09:35:10;;;;;;;;;;;;;;;31.44;34.50;101870.93;106761;1263;25331;-53
2023/09/03 09:37:40;;;;;;;;;;;;;;;31.43;34.45;101867.82;106813;1260;23306;-51
2023/09/03 09:40:07;;;;;;;;;;;;;;;31.42;34.54;101868.23;106606;1275;25499;-56
2023/09/03 09:42:35;;;;;;;;;;;;;;;31.42;34.17;101863.55;106772;1267;25394;-50
2023/09/03 09:45:02;;;;;;;;;;;;;;;31.42;33.81;101861.42;106785;1259;22734;-51
2023/09/03 09:47:29;;;;;;;;;;;;;;;31.43;33.61;101861.52;106798;1268;24173;-49
2023/09/03 09:49:56;;;;;;;;;;;;;;;31.44;33.37;101860.93;106843;1260;25316;-49
2023/09/03 09:52:23;;;;;;;;;;;;;;;31.42;33.22;101855.14;106758;1272;25338;-49
2023/09/03 09:54:50;;;;;;;;;;;;;;;31.42;33.03;101856.21;106825;1265;25369;-50
2023/09/03 09:57:20;;;;;;;;;;;;;;;31.43;33.58;101854.02;106801;1260;25389;-49
2023/09/03 09:59:59;;;;;;;;;;;;;;;31.43;33.35;101853.94;106844;1260;25344;-50
2023/09/03 10:02:27;;;;;;;;;;;;;;;31.44;33.54;101851.38;106767;1269;25316;-50
2023/09/03 10:04:54;;;;;;;;;;;;;;;31.44;33.66;101849.24;106791;1260;25393;-50
2023/09/03 10:07:21;;;;;;;;;;;;;;;31.42;33.46;101850.65;106563;1262;25527;-51
2023/09/03 10:09:47;;;;;;;;;;;;;;;31.41;34.01;101846.41;106793;1265;24501;-50
2023/09/03 10:12:14;;;;;;;;;;;;;;;31.42;33.39;101846.92;106832;1267;25463;-50
2023/09/03 10:14:41;;;;;;;;;;;;;;;31.42;33.96;101842.40;106816;1259;24361;-49
2023/09/03 10:17:09;;;;;;;;;;;;;;;31.42;34.34;101838.12;106732;1272;25503;-50
2023/09/03 10:19:36;;;;;;;;;;;;;;;31.40;34.44;101837.25;106713;1270;25361;-49
2023/09/03 10:22:03;;;;;;;;;;;;;;;31.39;34.27;101830.71;106823;1259;22731;-49
2023/09/03 10:24:30;;;;;;;;;;;;;;;31.39;34.67;101829.27;106850;1269;24223;-50
2023/09/03 10:26:59;;;;;;;;;;;;;;;31.39;34.32;101820.98;106777;1270;23416;-51
2023/09/03 10:29:26;;;;;;;;;;;;;;;31.39;34.58;101819.20;106720;1256;25322;-49
2023/09/03 10:31:56;;;;;;;;;;;;;;;31.38;34.45;101818.04;106764;1265;22502;-50
2023/09/03 10:34:23;;;;;;;;;;;;;;;31.35;34.62;101811.48;106608;1278;25393;-54
2023/09/03 10:37:01;;;;;;;;;;;;;;;31.31;34.97;101811.00;106525;1274;25367;-50
2023/09/03 10:39:28;;;;;;;;;;;;;;;31.28;34.74;101809.80;106411;1262;25434;-49
2023/09/03 10:42:14;;;;;;;;;;;;;;;31.25;34.83;101814.33;106730;1259;24205;-50
2023/09/03 10:44:44;;;;;;;;;;;;;;;31.22;35.44;101813.93;106721;1262;25316;-50
2023/09/03 10:47:13;;;;;;;;;;;;;;;31.19;35.50;101812.98;106599;1260;25315;-49
2023/09/03 10:49:41;;;;;;;;;;;;;;;31.18;35.95;101815.01;106752;1257;23871;-49
2023/09/03 10:52:34;;;;;;;;;;;;;;;31.19;35.31;101814.58;106594;1266;23852;-50
2023/09/03 10:55:14;;;;;;;;;;;;;;;31.20;34.85;101810.42;106619;1272;22526;-50
2023/09/03 10:57:42;;;;;;;;;;;;;;;31.21;34.31;101809.43;106421;1260;25325;-49
2023/09/03 11:00:10;;;;;;;;;;;;;;;31.22;34.29;101807.88;106577;1262;24347;-54
2023/09/03 11:02:37;;;;;;;;;;;;;;;31.23;34.23;101801.68;106291;1268;25265;-49
2023/09/03 11:05:21;;;;;;;;;;;;;;;31.23;34.34;101801.84;106630;1259;25326;-50
2023/09/03 11:07:49;;;;;;;;;;;;;;;31.23;34.20;101797.34;106737;1262;24303;-50
2023/09/03 11:10:27;;;;;;;;;;;;;;;31.25;34.56;101795.92;106730;1262;25344;-50
2023/09/03 11:12:54;;;;;;;;;;;;;;;31.25;34.18;101793.38;106852;1263;25437;-50
2023/09/03 11:15:21;;;;;;;;;;;;;;;31.24;33.78;101787.41;106705;1263;25368;-49
2023/09/03 11:17:49;;;;;;;;;;;;;;;31.24;33.51;101782.58;106766;1256;25610;-49
2023/09/03 11:20:28;;;;;;;;;;;;;;;31.26;33.21;101782.60;106760;1259;25331;-50
2023/09/03 11:23:14;;;;;;;;;;;;;;;31.27;32.83;101785.73;106910;1267;25316;-53
2023/09/03 11:25:41;;;;;;;;;;;;;;;31.26;33.07;101786.80;106552;1278;25539;-49
2023/09/03 11:28:11;;;;;;;;;;;;;;;31.26;33.25;101785.20;106802;1261;25341;-50
2023/09/03 11:30:45;;;;;;;;;;;;;;;31.26;32.94;101781.11;106844;1259;25380;-50
2023/09/03 11:33:25;;;;;;;;;;;;;;;31.27;33.04;101779.23;106821;1259;25324;-49
2023/09/03 11:35:56;;;;;;;;;;;;;;;31.27;33.21;101775.11;106876;1256;25488;-50
2023/09/03 11:38:29;;;;;;;;;;;;;;;31.27;32.55;101768.27;106688;1258;22511;-51
2023/09/03 11:40:56;;;;;;;;;;;;;;;31.28;32.41;101767.14;106790;1269;25380;-50
2023/09/03 11:43:24;;;;;;;;;;;;;;;31.28;32.99;101762.81;106856;1256;25334;-52
2023/09/03 11:45:51;;;;;;;;;;;;;;;31.27;32.60;101755.39;106850;1260;24192;-51
2023/09/03 11:48:28;;;;;;;;;;;;;;;31.26;32.62;101756.19;106659;1268;24192;-50
2023/09/03 11:50:54;;;;;;;;;;;;;;;31.28;32.82;101753.87;106801;1259;25393;-51
2023/09/03 11:53:24;;;;;;;;;;;;;;;31.28;32.57;101751.52;106796;1257;25324;-50
2023/09/03 11:55:54;;;;;;;;;;;;;;;31.23;32.42;101753.10;106847;1268;25306;-51
2023/09/03 11:58:22;;;;;;;;;;;;;;;31.26;32.49;101750.30;106751;1273;22521;-56
2023/09/03 12:00:49;;;;;;;;;;;;;;;31.28;32.56;101747.02;106794;1259;27084;-51
2023/09/03 12:03:16;;;;;;;;;;;;;;;31.30;32.21;101747.38;106743;1259;25325;-50
2023/09/03 12:05:44;;;;;;;;;;;;;;;31.31;32.05;101744.66;106794;1262;25305;-52
2023/09/03 12:08:11;;;;;;;;;;;;;;;31.31;32.52;101741.73;106859;1268;25364;-50
2023/09/03 12:10:38;;;;;;;;;;;;;;;31.32;32.51;101736.58;106761;1256;25392;-50
2023/09/03 12:13:08;;;;;;;;;;;;;;;31.37;32.74;101733.16;106864;1256;22579;-50
2023/09/03 12:15:35;;;;;;;;;;;;;;;31.41;33.13;101729.19;106794;1269;25330;-55
2023/09/03 12:18:08;;;;;;;;;;;;;;;31.44;32.70;101727.05;106795;1267;25333;-51
2023/09/03 12:20:40;;;;;;;;;;;;;;;31.48;32.29;101729.27;106812;1259;25338;-51
2023/09/03 12:23:14;;;;;;;;;;;;;;;31.50;32.45;101726.87;106795;1259;24179;-50
2023/09/03 12:25:42;;;;;;;;;;;;;;;31.50;32.05;101723.25;106731;1268;25337;-54
2023/09/03 12:28:09;;;;;;;;;;;;;;;31.50;32.51;101723.66;106762;1259;25316;-50
2023/09/03 12:30:58;;;;;;;;;;;;;;;31.50;32.80;101716.09;106926;1260;24234;-49